CheckWX is a tool to help pilots better visualize weather data.  It is not intended as a substitute for an official pre-flight weather briefing.

18:19:40 UTC

KRSN METAR
Ruston Regional Airport
Ruston, Louisiana, USA
Current

45 mins ago

KRSN 061735Z AUTO 15004KT 10SM SCT110 24/16 A3011 RMK AO2 T02380155
Observed
Apr-6 @ 17:35 UTC
Wind
  • 150° at 4 KTS
Visibility
Flight Rules
VFR
Cloud Levels
  • Scattered at 11,000' AGL
Temperature
24°C / 75°F
Dewpoint
16°C / 61°F
Humidity
61%
Altimeter
30.11" Hg
Pressure
1019.62 hPa
Previous

1 hour ago

KRSN 061655Z AUTO 14003KT 10SM SCT120 23/15 A3012 RMK AO2 T02250154
Observed
Apr-6 @ 16:55 UTC
Wind
  • 140° at 3 KTS
Visibility
Flight Rules
VFR
Cloud Levels
  • Scattered at 12,000' AGL
Temperature
22°C / 72°F
Dewpoint
15°C / 59°F
Humidity
65%
Altimeter
30.12" Hg
Pressure
1020.02 hPa
Previous

2 hours ago

KRSN 061635Z AUTO 17004KT 10SM BKN120 22/15 A3013 RMK AO2 T02220152
Observed
Apr-6 @ 16:35 UTC
Wind
  • 170° at 4 KTS
Visibility
Flight Rules
VFR
Cloud Levels
  • Broken at 12,000' AGL
Temperature
22°C / 72°F
Dewpoint
15°C / 59°F
Humidity
65%
Altimeter
30.13" Hg
Pressure
1020.32 hPa